Time;durP1;ratioP1;P1;durP2;ratioP2;P2;SDS_P1;SDS_P2;PMS_P1;PMS_P2;Temp;Humidity;BMP_temperature;BMP_pressure;BME280_temperature;BME280_humidity;BME280_pressure;Samples;Min_cycle;Max_cycle;Signal;HPM_P1;HPM_P2
2023/01/07 00:01:02;;;;;;;7.85;4.00;;;11.60;94.70;;;;;;5134803;28;20061;-74
2023/01/07 00:03:28;;;;;;;6.38;3.67;;;11.60;94.60;;;;;;5116940;28;20023;-74
2023/01/07 00:06:01;;;;;;;6.57;4.22;;;11.50;94.60;;;;;;5100876;28;20028;-74
2023/01/07 00:08:31;;;;;;;7.55;4.53;;;11.60;94.70;;;;;;5134554;28;20011;-73
2023/01/07 00:11:03;;;;;;;7.70;4.00;;;11.60;94.70;;;;;;5117793;28;20027;-73
2023/01/07 00:13:29;;;;;;;5.22;3.50;;;11.60;94.70;;;;;;5134586;28;20050;-74
2023/01/07 00:16:06;;;;;;;7.90;4.05;;;11.60;94.60;;;;;;5117584;28;20027;-74
2023/01/07 00:18:31;;;;;;;7.97;4.25;;;11.50;94.70;;;;;;5134497;28;20023;-74
2023/01/07 00:20:58;;;;;;;6.85;3.53;;;11.50;94.70;;;;;;5117337;28;20039;-74
2023/01/07 00:23:26;;;;;;;10.80;4.28;;;11.50;94.70;;;;;;5134295;28;20042;-74
2023/01/07 00:25:57;;;;;;;6.20;3.90;;;11.50;94.70;;;;;;5134357;28;20016;-74
2023/01/07 00:28:23;;;;;;;7.07;4.05;;;11.50;94.70;;;;;;5134386;28;20054;-74
2023/01/07 00:30:49;;;;;;;9.73;4.20;;;11.50;94.70;;;;;;5133922;28;20100;-74
2023/01/07 00:33:15;;;;;;;6.10;2.58;;;11.50;94.70;;;;;;5117182;28;20036;-73
2023/01/07 00:35:43;;;;;;;7.25;4.07;;;11.50;94.70;;;;;;5134109;28;20055;-74
2023/01/07 00:38:10;;;;;;;7.63;4.15;;;11.50;94.70;;;;;;5134180;28;20084;-74
2023/01/07 00:40:36;;;;;;;8.70;3.97;;;11.50;94.70;;;;;;5134026;28;20020;-74
2023/01/07 00:43:05;;;;;;;6.45;3.90;;;11.50;94.60;;;;;;5134953;28;20028;-74
2023/01/07 00:45:34;;;;;;;7.85;3.90;;;11.50;94.70;;;;;;5134949;28;20019;-74
2023/01/07 00:48:01;;;;;;;6.80;3.83;;;11.50;94.60;;;;;;5134964;28;20022;-74
2023/01/07 00:50:30;;;;;;;8.48;4.13;;;11.50;94.60;;;;;;5133725;28;20030;-73
2023/01/07 00:52:56;;;;;;;6.10;3.17;;;11.50;94.50;;;;;;5134850;28;20027;-73
2023/01/07 00:55:22;;;;;;;6.53;3.80;;;11.50;94.50;;;;;;5134826;28;20030;-74
2023/01/07 00:57:48;;;;;;;7.75;4.15;;;11.50;94.50;;;;;;5134727;28;20031;-73
2023/01/07 01:00:16;;;;;;;6.28;4.03;;;11.50;94.50;;;;;;5133641;28;20027;-73
2023/01/07 01:02:42;;;;;;;7.85;3.53;;;11.50;94.40;;;;;;5116564;28;20569;-74
2023/01/07 01:05:08;;;;;;;8.00;3.95;;;11.50;94.40;;;;;;5133541;28;20019;-74
2023/01/07 01:07:35;;;;;;;8.23;3.70;;;11.50;94.40;;;;;;5133660;28;20035;-74
2023/01/07 01:10:02;;;;;;;6.22;3.90;;;11.40;94.30;;;;;;5133575;28;20049;-73
2023/01/07 01:12:27;;;;;;;5.85;3.55;;;11.40;94.30;;;;;;5133521;28;20034;-74
2023/01/07 01:14:53;;;;;;;6.05;3.60;;;11.40;94.30;;;;;;5116201;28;20024;-73
2023/01/07 01:17:20;;;;;;;6.97;3.15;;;11.40;94.30;;;;;;5133428;28;20034;-74
2023/01/07 01:19:46;;;;;;;5.68;3.65;;;11.40;94.30;;;;;;5134364;28;20459;-74
2023/01/07 01:22:11;;;;;;;6.45;3.70;;;11.30;94.40;;;;;;5116338;28;20034;-73
2023/01/07 01:24:37;;;;;;;6.55;3.50;;;11.30;94.50;;;;;;5116377;28;20091;-74
2023/01/07 01:27:03;;;;;;;7.68;3.92;;;11.30;94.50;;;;;;5116250;28;20038;-74
2023/01/07 01:29:28;;;;;;;9.48;3.70;;;11.30;94.50;;;;;;5133320;28;20023;-74
2023/01/07 01:31:54;;;;;;;5.40;3.40;;;11.30;94.50;;;;;;5116107;28;20100;-74
2023/01/07 01:34:20;;;;;;;5.68;3.50;;;11.20;94.40;;;;;;5116147;28;20039;-73
2023/01/07 01:36:45;;;;;;;5.88;3.45;;;11.20;94.40;;;;;;5133172;28;20114;-74
2023/01/07 01:39:11;;;;;;;7.57;3.72;;;11.20;94.50;;;;;;5116063;28;20028;-74
2023/01/07 01:41:37;;;;;;;8.40;3.80;;;11.20;94.50;;;;;;5099117;28;20032;-73
2023/01/07 01:44:41;;;;;;;6.05;3.58;;;11.20;94.40;;;;;;5116126;28;20031;-74
2023/01/07 01:47:32;;;;;;;5.78;3.72;;;11.20;94.50;;;;;;5133049;28;20024;-75
2023/01/07 01:50:38;;;;;;;7.03;3.88;;;11.20;94.50;;;;;;5133992;28;20027;-74
2023/01/07 01:53:06;;;;;;;6.30;3.55;;;11.20;94.50;;;;;;5034763;28;20022;-74
2023/01/07 01:55:38;;;;;;;5.85;3.20;;;11.20;94.60;;;;;;5121430;28;20035;-74
2023/01/07 01:58:09;;;;;;;6.28;2.83;;;11.20;94.50;;;;;;5134084;28;20079;-74
2023/01/07 02:00:35;;;;;;;6.72;3.40;;;11.10;94.50;;;;;;5132895;28;20046;-74
2023/01/07 02:03:04;;;;;;;6.80;3.58;;;11.10;94.50;;;;;;5132844;28;20059;-74
2023/01/07 02:05:38;;;;;;;8.48;3.72;;;11.20;94.40;;;;;;5133860;28;20390;-75
2023/01/07 02:08:05;;;;;;;4.85;3.13;;;11.10;94.40;;;;;;5133796;28;20045;-74
2023/01/07 02:10:32;;;;;;;6.43;3.40;;;11.20;94.30;;;;;;5132833;28;20020;-75
2023/01/07 02:13:37;;;;;;;5.63;3.72;;;11.20;94.40;;;;;;5132746;28;20032;-74
2023/01/07 02:16:21;;;;;;;6.65;3.58;;;11.10;94.30;;;;;;5132775;28;20045;-74
2023/01/07 02:19:22;;;;;;;5.85;3.75;;;11.10;94.40;;;;;;5132726;28;20397;-74
2023/01/07 02:22:16;;;;;;;7.68;4.35;;;11.10;94.40;;;;;;5132642;28;20023;-74
2023/01/07 02:25:20;;;;;;;7.38;4.00;;;11.10;94.30;;;;;;5132691;28;20054;-74
2023/01/07 02:27:52;;;;;;;5.30;3.42;;;11.10;94.50;;;;;;5131615;28;20095;-74
2023/01/07 02:30:46;;;;;;;6.97;3.40;;;11.10;94.40;;;;;;5137463;28;20048;-74
2023/01/07 02:33:17;;;;;;;6.13;3.63;;;11.20;94.50;;;;;;5091830;28;20046;-74
2023/01/07 02:35:54;;;;;;;4.97;3.15;;;11.20;94.50;;;;;;5136628;28;20044;-74
2023/01/07 02:38:57;;;;;;;5.32;3.28;;;11.20;94.30;;;;;;5137578;28;20031;-74
2023/01/07 02:41:47;;;;;;;6.43;3.10;;;11.20;94.30;;;;;;5106228;28;20049;-74
2023/01/07 02:44:24;;;;;;;5.88;3.70;;;11.20;94.30;;;;;;5137426;28;20107;-74
2023/01/07 02:47:17;;;;;;;7.53;3.72;;;11.20;94.40;;;;;;5136355;28;20079;-74
2023/01/07 02:49:46;;;;;;;5.88;3.28;;;11.20;94.30;;;;;;5136286;28;20028;-74
2023/01/07 02:52:26;;;;;;;8.40;3.75;;;11.20;94.10;;;;;;5137179;28;20543;-74
2023/01/07 02:55:15;;;;;;;7.15;3.42;;;11.20;94.20;;;;;;5136165;28;20030;-74
2023/01/07 02:57:59;;;;;;;5.55;3.33;;;11.30;94.10;;;;;;5137157;28;20039;-74
2023/01/07 03:00:44;;;;;;;6.35;3.60;;;11.30;94.10;;;;;;5136120;28;20031;-74
2023/01/07 03:03:48;;;;;;;7.65;3.65;;;11.30;94.10;;;;;;5136992;28;20047;-74
2023/01/07 03:06:20;;;;;;;4.85;3.13;;;11.30;94.00;;;;;;5137045;28;20015;-74
2023/01/07 03:09:02;;;;;;;4.85;2.60;;;11.20;94.10;;;;;;5136956;28;20019;-74
2023/01/07 03:11:39;;;;;;;5.55;3.47;;;11.20;94.20;;;;;;5136895;28;20102;-74
2023/01/07 03:14:35;;;;;;;6.20;3.13;;;11.20;94.20;;;;;;5135877;28;20030;-74
2023/01/07 03:17:05;;;;;;;7.60;3.15;;;11.20;94.20;;;;;;5136813;28;20023;-74
2023/01/07 03:19:37;;;;;;;5.75;3.00;;;11.20;94.20;;;;;;5136674;28;20016;-74
2023/01/07 03:22:05;;;;;;;6.70;3.70;;;11.20;94.20;;;;;;5135610;28;20027;-75
2023/01/07 03:24:32;;;;;;;5.68;3.25;;;11.20;94.30;;;;;;5135666;28;20079;-74
2023/01/07 03:27:00;;;;;;;4.78;3.10;;;11.20;94.20;;;;;;5136522;28;20023;-74
2023/01/07 03:29:27;;;;;;;6.43;2.80;;;11.20;94.10;;;;;;5135435;28;20032;-74
2023/01/07 03:32:08;;;;;;;5.32;3.20;;;11.20;94.20;;;;;;5118304;28;20050;-74
2023/01/07 03:34:35;;;;;;;5.20;2.72;;;11.20;94.30;;;;;;5135484;28;20031;-74
2023/01/07 03:37:16;;;;;;;5.00;2.78;;;11.20;94.30;;;;;;5135016;28;20039;-74
2023/01/07 03:39:44;;;;;;;5.97;2.83;;;11.10;94.30;;;;;;5136369;28;20034;-75
2023/01/07 03:44:56;;;;;;;4.20;2.72;;;11.20;94.20;;;;;;5136429;28;20022;-74
2023/01/07 03:47:23;;;;;;;3.85;2.50;;;11.20;94.20;;;;;;5135183;28;20030;-74
2023/01/07 03:49:48;;;;;;;5.15;2.65;;;11.20;94.20;;;;;;5135171;28;20028;-74
2023/01/07 03:52:14;;;;;;;5.70;2.92;;;11.20;94.30;;;;;;5135024;28;20019;-74
2023/01/07 03:54:40;;;;;;;5.25;3.10;;;11.10;94.30;;;;;;5135994;28;20031;-75
2023/01/07 03:57:05;;;;;;;5.05;2.80;;;11.20;94.20;;;;;;5117946;28;20027;-74
2023/01/07 03:59:31;;;;;;;5.45;3.00;;;11.20;94.20;;;;;;5117979;28;20061;-74
2023/01/07 04:01:56;;;;;;;4.78;2.78;;;11.20;94.10;;;;;;5117834;28;20035;-76
2023/01/07 04:04:22;;;;;;;4.88;2.65;;;11.20;94.10;;;;;;5117860;28;20027;-74
2023/01/07 04:06:48;;;;;;;6.90;2.88;;;11.20;94.00;;;;;;5134801;28;20027;-75
2023/01/07 04:09:14;;;;;;;3.85;2.35;;;11.30;94.10;;;;;;5134584;28;20029;-74
2023/01/07 04:11:40;;;;;;;6.28;2.92;;;11.30;93.90;;;;;;5117573;28;20020;-74
2023/01/07 04:14:06;;;;;;;6.60;3.10;;;11.30;93.90;;;;;;5117587;28;20088;-74
2023/01/07 04:16:32;;;;;;;4.00;2.53;;;11.30;93.90;;;;;;5134685;28;20042;-74
2023/01/07 04:18:57;;;;;;;4.45;2.63;;;11.20;94.00;;;;;;5117441;28;20015;-74
2023/01/07 04:21:23;;;;;;;4.78;2.72;;;11.20;94.00;;;;;;5100507;28;20031;-75
2023/01/07 04:23:49;;;;;;;3.85;2.58;;;11.20;94.00;;;;;;5134416;28;20042;-74
2023/01/07 04:26:14;;;;;;;4.93;2.70;;;11.20;94.00;;;;;;5135359;28;20039;-74
2023/01/07 04:28:40;;;;;;;3.72;2.50;;;11.20;94.00;;;;;;5100469;28;20019;-75
2023/01/07 04:31:06;;;;;;;3.38;2.20;;;11.20;94.00;;;;;;5134078;28;20068;-74
2023/01/07 04:33:31;;;;;;;4.38;2.67;;;11.20;94.00;;;;;;5117219;28;20039;-74
2023/01/07 04:35:57;;;;;;;5.93;2.90;;;11.20;93.90;;;;;;5117127;28;20023;-74
2023/01/07 04:38:23;;;;;;;6.15;2.33;;;11.20;93.90;;;;;;5117087;28;20034;-74
2023/01/07 04:40:48;;;;;;;4.47;2.53;;;11.30;93.90;;;;;;5116995;28;20032;-73
2023/01/07 04:43:14;;;;;;;4.55;2.70;;;11.30;93.90;;;;;;5116959;28;20030;-74
2023/01/07 04:45:40;;;;;;;6.03;2.72;;;11.20;93.90;;;;;;5134021;28;20049;-74
2023/01/07 04:48:06;;;;;;;5.03;2.53;;;11.30;93.90;;;;;;5134556;28;20047;-74
2023/01/07 04:50:32;;;;;;;4.25;2.50;;;11.20;93.80;;;;;;5116869;28;20020;-74
2023/01/07 04:52:57;;;;;;;3.85;2.20;;;11.20;93.80;;;;;;5134850;28;20031;-74
2023/01/07 04:55:23;;;;;;;5.50;2.22;;;11.20;93.70;;;;;;5117032;28;20031;-74
2023/01/07 04:57:49;;;;;;;6.05;2.88;;;11.20;93.70;;;;;;5133729;28;20024;-75
2023/01/07 05:00:15;;;;;;;5.22;2.97;;;11.20;93.60;;;;;;5133699;28;20061;-74
2023/01/07 05:02:41;;;;;;;4.65;2.78;;;11.20;93.60;;;;;;5133702;28;20486;-73
2023/01/07 05:05:07;;;;;;;6.57;3.13;;;11.20;93.50;;;;;;5133654;28;20012;-74
2023/01/07 05:07:32;;;;;;;5.22;2.90;;;11.20;93.60;;;;;;5116565;28;20028;-74
2023/01/07 05:09:58;;;;;;;4.32;2.80;;;11.20;93.50;;;;;;5133656;28;20039;-74
2023/01/07 05:12:24;;;;;;;5.68;2.90;;;11.10;93.50;;;;;;5134535;28;20031;-74
2023/01/07 05:14:50;;;;;;;3.42;2.30;;;11.10;93.50;;;;;;5133693;28;20035;-74
2023/01/07 05:17:15;;;;;;;4.20;2.47;;;11.10;93.40;;;;;;5116389;28;20036;-74
2023/01/07 05:19:41;;;;;;;4.80;2.50;;;11.10;93.40;;;;;;5116388;28;20020;-74
2023/01/07 05:22:06;;;;;;;4.65;2.63;;;11.10;93.40;;;;;;5116251;28;20032;-74
2023/01/07 05:24:32;;;;;;;4.82;2.65;;;11.10;93.40;;;;;;5116397;28;20020;-74
2023/01/07 05:26:58;;;;;;;6.10;3.00;;;11.10;93.50;;;;;;5134247;28;20054;-74
2023/01/07 05:29:23;;;;;;;6.60;2.58;;;11.10;93.40;;;;;;5116326;28;20034;-74
2023/01/07 05:31:49;;;;;;;4.15;2.55;;;11.10;93.30;;;;;;5133145;28;20059;-74
2023/01/07 05:34:14;;;;;;;3.92;2.45;;;11.10;93.30;;;;;;5116195;28;20039;-74
2023/01/07 05:36:40;;;;;;;5.22;2.70;;;11.10;93.30;;;;;;5133280;28;20024;-74
2023/01/07 05:39:07;;;;;;;4.90;2.42;;;11.10;93.30;;;;;;5116151;28;20035;-74
2023/01/07 05:41:32;;;;;;;4.18;2.65;;;11.10;93.40;;;;;;5116142;28;20036;-74
2023/01/07 05:43:58;;;;;;;3.60;2.33;;;11.10;93.30;;;;;;5115996;28;20026;-74
2023/01/07 05:46:23;;;;;;;3.88;2.50;;;11.10;93.40;;;;;;5115966;28;20118;-74
2023/01/07 05:48:49;;;;;;;5.72;2.53;;;11.10;93.30;;;;;;5099167;28;20028;-75
2023/01/07 05:51:15;;;;;;;6.65;2.83;;;11.20;93.30;;;;;;5133044;28;20038;-74
2023/01/07 05:53:40;;;;;;;5.82;2.65;;;11.20;93.20;;;;;;5133036;28;20032;-74
2023/01/07 05:56:06;;;;;;;3.22;2.03;;;11.20;93.20;;;;;;5115996;28;20027;-74
2023/01/07 05:58:32;;;;;;;4.60;2.78;;;11.20;93.10;;;;;;5099051;28;20099;-75
2023/01/07 06:00:57;;;;;;;3.55;2.50;;;11.20;93.10;;;;;;5134653;28;20023;-75
2023/01/07 06:03:23;;;;;;;5.72;2.55;;;11.20;93.00;;;;;;5103117;28;20392;-74
2023/01/07 06:05:49;;;;;;;5.78;2.50;;;11.20;92.80;;;;;;5120152;28;20012;-75
2023/01/07 06:08:15;;;;;;;4.45;2.25;;;11.30;92.90;;;;;;5120139;28;20030;-74
2023/01/07 06:10:43;;;;;;;3.30;2.40;;;11.30;92.70;;;;;;5137137;28;20024;-74
2023/01/07 06:13:08;;;;;;;4.30;2.50;;;11.30;92.60;;;;;;5137047;28;20023;-74
2023/01/07 06:15:34;;;;;;;2.80;1.77;;;11.30;92.50;;;;;;5137068;28;20028;-74
2023/01/07 06:18:00;;;;;;;3.97;2.33;;;11.30;92.40;;;;;;5119925;28;20032;-74
2023/01/07 06:20:25;;;;;;;5.38;2.15;;;11.30;92.00;;;;;;5120079;28;20042;-74
2023/01/07 06:22:51;;;;;;;4.00;2.03;;;11.30;91.90;;;;;;5136729;28;20031;-74
2023/01/07 06:25:16;;;;;;;4.78;1.98;;;11.30;92.00;;;;;;5137906;28;20039;-74
2023/01/07 06:27:42;;;;;;;7.38;2.47;;;11.40;91.80;;;;;;5119715;28;20024;-74
2023/01/07 06:30:09;;;;;;;4.25;1.83;;;11.30;91.80;;;;;;5136622;28;20024;-75
2023/01/07 06:32:40;;;;;;;2.95;1.88;;;11.30;91.60;;;;;;5136757;28;20032;-74
2023/01/07 06:35:07;;;;;;;4.07;2.40;;;11.30;91.60;;;;;;5137516;28;20038;-74
2023/01/07 06:37:33;;;;;;;3.15;1.88;;;11.30;91.70;;;;;;5137467;28;20031;-75
2023/01/07 06:39:58;;;;;;;2.92;1.90;;;11.40;91.40;;;;;;5119530;28;20031;-74
2023/01/07 06:42:24;;;;;;;3.38;2.17;;;11.30;91.30;;;;;;5119465;28;20028;-74
2023/01/07 06:44:50;;;;;;;3.25;2.15;;;11.30;91.20;;;;;;5102417;28;20069;-74
2023/01/07 06:47:16;;;;;;;3.45;1.50;;;11.30;91.40;;;;;;5119239;28;20131;-74
2023/01/07 06:49:41;;;;;;;3.67;2.03;;;11.30;91.30;;;;;;5136246;28;20058;-75
2023/01/07 06:52:07;;;;;;;3.15;2.00;;;11.30;91.20;;;;;;5102299;28;20131;-74
2023/01/07 06:54:32;;;;;;;2.53;1.70;;;11.30;91.20;;;;;;5136224;28;20031;-74
2023/01/07 06:56:58;;;;;;;2.85;1.83;;;11.30;91.10;;;;;;5136213;28;20027;-75
2023/01/07 06:59:24;;;;;;;3.67;1.23;;;11.30;91.10;;;;;;5136015;28;20047;-74
2023/01/07 07:01:49;;;;;;;2.90;1.50;;;11.30;90.60;;;;;;5118959;28;20031;-74
2023/01/07 07:04:15;;;;;;;4.68;1.90;;;11.30;90.90;;;;;;5136291;28;20027;-74
2023/01/07 07:06:40;;;;;;;2.22;1.40;;;11.30;90.90;;;;;;5118931;28;20043;-74
2023/01/07 07:09:06;;;;;;;5.65;1.85;;;11.30;90.60;;;;;;5135782;28;20019;-74
2023/01/07 07:11:32;;;;;;;3.38;1.83;;;11.30;90.60;;;;;;5118574;28;20052;-74
2023/01/07 07:13:58;;;;;;;3.53;1.90;;;11.30;90.60;;;;;;5101927;28;20024;-74
2023/01/07 07:16:24;;;;;;;3.13;1.80;;;11.30;90.60;;;;;;5118871;28;20020;-74
2023/01/07 07:18:51;;;;;;;3.08;1.40;;;11.20;90.80;;;;;;5136747;28;20051;-74
2023/01/07 07:21:16;;;;;;;2.70;1.63;;;11.20;90.40;;;;;;5135751;28;20040;-74
2023/01/07 07:23:42;;;;;;;2.40;1.48;;;11.20;90.30;;;;;;5135696;28;20032;-74
2023/01/07 07:26:08;;;;;;;3.08;1.50;;;11.20;90.20;;;;;;5135688;28;20027;-75
2023/01/07 07:28:34;;;;;;;2.45;1.40;;;11.20;90.40;;;;;;5136546;28;20020;-74
2023/01/07 07:31:00;;;;;;;2.75;1.60;;;11.20;90.40;;;;;;5135296;28;20067;-74
2023/01/07 07:33:26;;;;;;;4.88;1.50;;;11.20;90.20;;;;;;5118462;28;20043;-75
2023/01/07 07:35:53;;;;;;;3.88;1.70;;;11.20;89.80;;;;;;5101402;28;20058;-75
2023/01/07 07:38:19;;;;;;;2.38;1.70;;;11.20;90.10;;;;;;5135381;28;20020;-74
2023/01/07 07:40:45;;;;;;;2.38;1.50;;;11.20;89.70;;;;;;5135366;28;20027;-74
2023/01/07 07:43:11;;;;;;;2.42;1.02;;;11.20;89.80;;;;;;5136164;28;20023;-74
2023/01/07 07:45:37;;;;;;;2.40;1.40;;;11.20;89.50;;;;;;5135217;28;20035;-75
2023/01/07 07:48:05;;;;;;;2.13;1.30;;;11.20;89.50;;;;;;5118104;28;20047;-75
2023/01/07 07:50:30;;;;;;;2.38;1.38;;;11.20;89.30;;;;;;5136119;28;20020;-74
2023/01/07 07:52:56;;;;;;;2.08;1.25;;;11.20;89.50;;;;;;5118000;28;20069;-74
2023/01/07 07:55:21;;;;;;;3.42;1.42;;;11.20;89.50;;;;;;5117976;28;20039;-73
2023/01/07 07:57:47;;;;;;;3.60;1.27;;;11.20;89.40;;;;;;5135961;28;20027;-74
2023/01/07 08:00:13;;;;;;;1.92;1.17;;;11.20;89.30;;;;;;5101009;28;20044;-74
2023/01/07 08:02:39;;;;;;;3.10;1.42;;;11.10;89.00;;;;;;5117947;28;20043;-74
2023/01/07 08:05:05;;;;;;;3.17;1.42;;;11.20;90.10;;;;;;5117859;28;20020;-74
2023/01/07 08:07:30;;;;;;;1.52;1.08;;;11.20;89.10;;;;;;5134762;28;20050;-74
2023/01/07 08:09:56;;;;;;;2.42;1.58;;;11.20;88.40;;;;;;5117596;28;20091;-75
2023/01/07 08:12:22;;;;;;;2.97;1.75;;;11.20;88.70;;;;;;5100742;28;20126;-74
2023/01/07 08:14:47;;;;;;;3.10;1.27;;;11.30;88.40;;;;;;5134638;28;20031;-74
2023/01/07 08:17:13;;;;;;;1.58;1.10;;;11.20;88.40;;;;;;5117583;28;20027;-75
2023/01/07 08:19:38;;;;;;;1.58;1.13;;;11.20;88.30;;;;;;5134782;28;20038;-74
2023/01/07 08:22:04;;;;;;;3.72;1.40;;;11.30;87.90;;;;;;5134469;28;20075;-74
2023/01/07 08:24:29;;;;;;;3.22;1.35;;;11.30;87.70;;;;;;5116646;28;20130;-74
2023/01/07 08:26:55;;;;;;;1.70;1.30;;;11.30;88.20;;;;;;5100416;28;20030;-74
2023/01/07 08:29:22;;;;;;;3.97;1.42;;;11.20;87.40;;;;;;5134179;28;20073;-73
2023/01/07 08:31:48;;;;;;;2.35;1.27;;;11.30;87.90;;;;;;5135101;28;20125;-74
2023/01/07 08:34:14;;;;;;;2.65;1.08;;;11.30;87.30;;;;;;5117267;28;20024;-77
2023/01/07 08:36:39;;;;;;;1.60;1.20;;;11.30;87.90;;;;;;5134216;28;20020;-76
2023/01/07 08:39:05;;;;;;;4.05;1.60;;;11.30;87.20;;;;;;5135117;28;20027;-77
2023/01/07 08:41:31;;;;;;;2.95;1.35;;;11.30;87.50;;;;;;5135086;28;20027;-76
2023/01/07 08:43:56;;;;;;;2.00;1.02;;;11.40;86.90;;;;;;5117095;28;20024;-76
2023/01/07 08:46:22;;;;;;;3.35;1.60;;;11.30;87.10;;;;;;5117080;28;20027;-77
2023/01/07 08:48:47;;;;;;;4.13;1.30;;;11.30;87.00;;;;;;5116911;28;20023;-77
2023/01/07 08:51:13;;;;;;;1.90;1.30;;;11.40;86.50;;;;;;5099975;28;20077;-77
2023/01/07 08:53:39;;;;;;;4.57;1.65;;;11.40;86.80;;;;;;5134859;28;20024;-75
2023/01/07 08:56:05;;;;;;;4.28;1.30;;;11.40;87.00;;;;;;5133862;28;20062;-77
2023/01/07 08:58:30;;;;;;;2.40;1.17;;;11.40;86.20;;;;;;5133809;28;20061;-77
2023/01/07 09:01:04;;;;;;;4.25;2.17;;;11.40;85.70;;;;;;5133847;28;20027;-77
2023/01/07 09:03:30;;;;;;;4.32;2.05;;;11.50;85.80;;;;;;5133719;28;20024;-77
2023/01/07 09:05:55;;;;;;;4.13;1.25;;;11.50;85.80;;;;;;5099734;28;20053;-75
2023/01/07 09:08:21;;;;;;;1.98;1.17;;;11.50;86.00;;;;;;5133780;28;20032;-76
2023/01/07 09:10:47;;;;;;;3.28;1.48;;;11.50;85.80;;;;;;5134556;28;20135;-76
2023/01/07 09:13:12;;;;;;;2.72;1.38;;;11.50;85.00;;;;;;5116466;28;20107;-77
2023/01/07 09:15:38;;;;;;;2.95;1.20;;;11.50;86.10;;;;;;5133637;28;20028;-77
2023/01/07 09:18:04;;;;;;;1.95;1.30;;;11.50;86.10;;;;;;5134405;28;20191;-77
2023/01/07 09:20:29;;;;;;;3.80;1.10;;;11.50;85.20;;;;;;5134408;28;20020;-77
2023/01/07 09:22:55;;;;;;;2.95;1.30;;;11.40;84.60;;;;;;5134281;28;20035;-77
2023/01/07 09:25:21;;;;;;;2.15;1.38;;;11.50;84.80;;;;;;5116234;28;20034;-77
2023/01/07 09:27:48;;;;;;;2.60;1.45;;;11.60;84.70;;;;;;5133443;28;20053;-76
2023/01/07 09:30:14;;;;;;;2.90;1.20;;;11.50;84.40;;;;;;5099811;28;20087;-76
2023/01/07 09:32:41;;;;;;;4.10;1.35;;;11.50;84.00;;;;;;5116063;28;20047;-76
2023/01/07 09:35:08;;;;;;;1.92;0.82;;;11.60;83.80;;;;;;5116161;28;20039;-77
2023/01/07 09:37:33;;;;;;;2.63;1.25;;;11.60;83.40;;;;;;5134043;28;20042;-77
2023/01/07 09:40:00;;;;;;;3.67;1.30;;;11.60;83.50;;;;;;5116193;28;20020;-77
2023/01/07 09:42:31;;;;;;;1.45;0.90;;;11.70;83.30;;;;;;5133088;28;20020;-77
2023/01/07 09:45:18;;;;;;;3.03;0.93;;;11.70;82.80;;;;;;5133091;28;20027;-77
2023/01/07 09:47:54;;;;;;;1.55;0.90;;;11.70;83.30;;;;;;5132997;28;20012;-77
2023/01/07 09:50:47;;;;;;;2.97;1.48;;;11.60;82.90;;;;;;5134018;28;20544;-77
2023/01/07 09:53:18;;;;;;;1.92;1.15;;;11.70;83.50;;;;;;5134055;28;20108;-78
2023/01/07 09:55:46;;;;;;;1.63;0.88;;;11.70;82.60;;;;;;5134206;28;20065;-77
2023/01/07 09:58:17;;;;;;;1.30;0.90;;;11.70;82.40;;;;;;5132957;28;20027;-78
2023/01/07 10:00:59;;;;;;;3.88;1.40;;;11.70;82.40;;;;;;5133004;28;20024;-77
2023/01/07 10:03:34;;;;;;;2.80;1.33;;;11.80;83.40;;;;;;5132929;28;20020;-77
2023/01/07 10:06:09;;;;;;;1.83;1.13;;;11.80;81.90;;;;;;5132847;28;20041;-78
2023/01/07 10:08:46;;;;;;;1.75;1.13;;;11.80;82.90;;;;;;5132825;28;20024;-78
2023/01/07 10:11:15;;;;;;;3.83;1.20;;;11.80;82.40;;;;;;5132792;28;20042;-78
2023/01/07 10:14:05;;;;;;;2.40;1.08;;;11.90;82.50;;;;;;5132773;28;20034;-78
2023/01/07 10:17:13;;;;;;;1.88;1.02;;;12.00;81.40;;;;;;5132880;28;20031;-78
2023/01/07 10:19:49;;;;;;;1.52;1.13;;;11.90;82.30;;;;;;5122755;28;20093;-77
2023/01/07 10:22:28;;;;;;;3.95;1.48;;;12.00;82.50;;;;;;5132858;28;20019;-78
2023/01/07 10:24:59;;;;;;;1.65;1.27;;;12.20;81.60;;;;;;5132664;28;20020;-77
2023/01/07 10:27:41;;;;;;;2.28;1.17;;;12.50;80.00;;;;;;5133698;28;20024;-77
2023/01/07 10:30:30;;;;;;;1.38;1.08;;;12.80;79.10;;;;;;5132647;28;20080;-76
2023/01/07 10:33:15;;;;;;;2.78;1.20;;;13.00;77.50;;;;;;5132513;28;20046;-77
2023/01/07 10:35:40;;;;;;;1.83;1.17;;;13.00;76.20;;;;;;5132610;28;20047;-78
2023/01/07 10:38:13;;;;;;;3.22;1.30;;;13.10;76.90;;;;;;5132584;28;20035;-77
2023/01/07 10:40:56;;;;;;;2.00;1.20;;;13.20;76.40;;;;;;5132562;28;20024;-77
2023/01/07 10:43:35;;;;;;;1.42;0.95;;;13.30;75.30;;;;;;5132490;28;20030;-77
2023/01/07 10:46:13;;;;;;;1.85;1.00;;;13.40;75.00;;;;;;5132484;28;20060;-77
2023/01/07 10:48:46;;;;;;;1.92;0.95;;;13.20;75.40;;;;;;5136374;28;20024;-77
2023/01/07 10:51:36;;;;;;;1.67;1.05;;;13.20;74.50;;;;;;5137320;28;20026;-76
2023/01/07 10:54:24;;;;;;;1.67;1.00;;;13.20;74.90;;;;;;5136232;28;20035;-77
2023/01/07 10:56:57;;;;;;;2.45;1.35;;;13.20;75.80;;;;;;5136245;28;20083;-74
2023/01/07 10:59:24;;;;;;;2.20;1.20;;;13.10;75.40;;;;;;5137165;27;20031;-76
2023/01/07 11:01:55;;;;;;;1.10;0.90;;;13.10;74.40;;;;;;5135957;28;20019;-75
2023/01/07 11:04:21;;;;;;;3.42;0.90;;;13.00;74.50;;;;;;5136037;28;20031;-75
2023/01/07 11:06:57;;;;;;;1.50;0.77;;;12.90;74.30;;;;;;5119159;28;20027;-75
2023/01/07 11:09:45;;;;;;;2.42;0.88;;;13.00;75.20;;;;;;5135876;28;20053;-75
2023/01/07 11:12:26;;;;;;;1.50;0.70;;;12.90;75.80;;;;;;5135882;28;20118;-76
2023/01/07 11:14:53;;;;;;;1.48;0.73;;;12.90;75.50;;;;;;5136978;28;20106;-76
2023/01/07 11:17:34;;;;;;;0.98;0.75;;;12.80;75.00;;;;;;5135734;28;20019;-76
2023/01/07 11:20:02;;;;;;;1.52;0.85;;;12.80;75.40;;;;;;5136865;28;20024;-76
2023/01/07 11:22:30;;;;;;;2.55;0.95;;;12.80;76.20;;;;;;5135673;28;20024;-75
2023/01/07 11:24:59;;;;;;;2.10;1.17;;;12.80;76.00;;;;;;5135578;28;20041;-75
2023/01/07 11:27:27;;;;;;;1.85;1.30;;;12.70;75.00;;;;;;5136596;28;20016;-76
2023/01/07 11:30:01;;;;;;;1.63;1.00;;;12.70;75.30;;;;;;5136592;28;20030;-75
2023/01/07 11:32:33;;;;;;;1.38;0.70;;;12.80;74.40;;;;;;5136158;28;20051;-75
2023/01/07 11:35:05;;;;;;;1.73;0.95;;;12.70;74.70;;;;;;5136392;28;20027;-75
2023/01/07 11:37:37;;;;;;;1.00;0.77;;;12.70;74.60;;;;;;5135454;28;20450;-76
2023/01/07 11:40:28;;;;;;;2.22;1.05;;;12.70;74.90;;;;;;5135387;28;20039;-76
2023/01/07 11:43:01;;;;;;;2.53;1.08;;;12.70;74.70;;;;;;5136299;28;20019;-76
2023/01/07 11:45:56;;;;;;;1.10;0.80;;;12.70;74.80;;;;;;5136370;28;20027;-76
2023/01/07 11:48:29;;;;;;;1.85;0.90;;;12.70;74.60;;;;;;5113514;28;20466;-76
2023/01/07 11:51:04;;;;;;;1.45;0.80;;;12.80;73.40;;;;;;5136120;28;20043;-76
2023/01/07 11:53:42;;;;;;;1.73;0.77;;;12.70;74.20;;;;;;5136136;28;20041;-76
2023/01/07 11:56:11;;;;;;;1.48;1.05;;;12.70;74.70;;;;;;5136179;28;20030;-76
2023/01/07 11:58:42;;;;;;;1.05;0.50;;;12.70;74.20;;;;;;5134812;28;20024;-76
2023/01/07 12:01:11;;;;;;;2.05;0.70;;;12.80;73.90;;;;;;5136018;28;20026;-76
2023/01/07 12:03:42;;;;;;;1.60;0.80;;;12.80;74.10;;;;;;5135771;27;20031;-76
2023/01/07 12:06:11;;;;;;;1.60;0.73;;;12.80;73.30;;;;;;5134897;28;20047;-75
2023/01/07 12:08:40;;;;;;;1.23;0.70;;;12.80;72.90;;;;;;5134745;28;20023;-76
2023/01/07 12:11:13;;;;;;;1.55;0.90;;;12.80;73.20;;;;;;5134673;28;20019;-76
2023/01/07 12:13:46;;;;;;;1.85;1.10;;;12.80;72.70;;;;;;5134753;28;20038;-76
2023/01/07 12:16:12;;;;;;;1.38;1.02;;;12.90;73.20;;;;;;5134652;28;20016;-76
2023/01/07 12:18:57;;;;;;;3.92;1.30;;;13.10;73.30;;;;;;5134550;28;20024;-76
2023/01/07 12:21:22;;;;;;;1.60;1.30;;;13.00;71.70;;;;;;5135574;28;20093;-76
2023/01/07 12:24:03;;;;;;;2.58;1.20;;;13.00;73.30;;;;;;5135366;28;20024;-76
2023/01/07 12:27:11;;;;;;;1.60;1.08;;;13.10;72.40;;;;;;5134230;28;20028;-76
2023/01/07 12:29:37;;;;;;;2.17;1.30;;;13.10;71.70;;;;;;5134166;28;20042;-76
2023/01/07 12:32:52;;;;;;;1.70;0.82;;;13.20;71.30;;;;;;5134195;28;20055;-75
2023/01/07 12:35:28;;;;;;;2.20;1.40;;;13.10;70.10;;;;;;5134045;28;20023;-76
2023/01/07 12:38:31;;;;;;;2.75;1.70;;;13.30;71.00;;;;;;5134233;28;20118;-75
2023/01/07 12:41:04;;;;;;;4.50;1.75;;;13.60;71.50;;;;;;5134227;28;20027;-76
2023/01/07 12:43:44;;;;;;;3.50;1.52;;;13.80;69.40;;;;;;5134087;28;20024;-76
2023/01/07 12:46:15;;;;;;;2.40;1.30;;;13.90;68.90;;;;;;5135100;28;20023;-76
2023/01/07 12:49:03;;;;;;;1.67;1.20;;;14.00;68.60;;;;;;5134161;28;20087;-76
2023/01/07 12:51:46;;;;;;;2.65;1.33;;;14.00;69.40;;;;;;5134966;28;20427;-76
2023/01/07 12:54:41;;;;;;;2.53;1.20;;;14.10;68.80;;;;;;5134049;28;20019;-76
2023/01/07 12:57:33;;;;;;;3.03;1.60;;;14.20;69.40;;;;;;5133844;28;20028;-76
2023/01/07 13:00:07;;;;;;;1.88;0.95;;;14.10;67.80;;;;;;5133863;28;20026;-76
2023/01/07 13:02:50;;;;;;;2.33;1.38;;;14.00;67.30;;;;;;5134779;28;20030;-75
2023/01/07 13:05:23;;;;;;;1.67;1.10;;;14.00;68.00;;;;;;5134720;28;20034;-76
2023/01/07 13:08:00;;;;;;;4.40;1.63;;;13.80;67.50;;;;;;5133575;28;20019;-76
2023/01/07 13:10:30;;;;;;;1.92;1.10;;;13.80;68.50;;;;;;5134337;28;20041;-76